createdAt,value
2022-12-07T00:01:21.794Z,0.59
2022-12-07T00:03:50.789Z,0.60
2022-12-07T00:06:18.342Z,0.59
2022-12-07T00:08:46.000Z,0.59
2022-12-07T00:11:15.641Z,0.56
2022-12-07T00:13:42.580Z,0.58
2022-12-07T00:16:15.628Z,0.59
2022-12-07T00:18:43.605Z,0.57
2022-12-07T00:21:21.150Z,0.58
2022-12-07T00:23:49.545Z,0.58
2022-12-07T00:26:22.168Z,0.55
2022-12-07T00:28:50.427Z,0.57
2022-12-07T00:31:20.765Z,0.58
2022-12-07T00:33:47.967Z,0.56
2022-12-07T00:36:19.713Z,0.56
2022-12-07T00:38:48.717Z,0.55
2022-12-07T00:41:25.869Z,0.55
2022-12-07T00:43:52.579Z,0.56
2022-12-07T00:46:22.372Z,0.55
2022-12-07T00:48:50.137Z,0.56
2022-12-07T00:51:19.196Z,0.57
2022-12-07T00:53:45.922Z,0.55
2022-12-07T00:56:15.243Z,0.55
2022-12-07T00:58:41.979Z,0.55
2022-12-07T01:01:12.508Z,0.56
2022-12-07T01:03:39.478Z,0.55
2022-12-07T01:06:06.296Z,0.55
2022-12-07T01:08:35.136Z,0.55
2022-12-07T01:11:04.653Z,0.55
2022-12-07T01:13:32.072Z,0.55
2022-12-07T01:16:03.344Z,0.56
2022-12-07T01:18:31.742Z,0.55
2022-12-07T01:21:07.265Z,0.54
2022-12-07T01:23:35.550Z,0.54
2022-12-07T01:26:05.351Z,0.53
2022-12-07T01:28:35.001Z,0.54
2022-12-07T01:31:04.696Z,0.51
2022-12-07T01:33:34.542Z,0.51
2022-12-07T01:36:08.742Z,0.52
2022-12-07T01:38:35.669Z,0.53
2022-12-07T01:41:03.583Z,0.53
2022-12-07T01:43:32.218Z,0.51
2022-12-07T01:45:59.705Z,0.52
2022-12-07T01:48:34.583Z,0.54
2022-12-07T01:51:06.260Z,0.53
2022-12-07T01:53:35.254Z,0.54
2022-12-07T01:56:01.991Z,0.51
2022-12-07T01:58:29.498Z,0.51
2022-12-07T02:00:56.172Z,0.51
2022-12-07T02:03:34.152Z,0.52
2022-12-07T02:06:01.419Z,0.49
2022-12-07T02:08:28.475Z,0.49
2022-12-07T02:10:55.747Z,0.46
2022-12-07T02:13:29.200Z,0.48
2022-12-07T02:16:53.345Z,0.48
2022-12-07T02:19:30.275Z,0.47
2022-12-07T02:22:04.299Z,0.43
2022-12-07T02:24:58.776Z,0.44
2022-12-07T02:27:38.243Z,0.41
2022-12-07T02:30:11.104Z,0.38
2022-12-07T02:33:00.228Z,0.39
2022-12-07T02:35:44.426Z,0.37
2022-12-07T02:38:28.995Z,0.35
2022-12-07T02:41:01.710Z,0.34
2022-12-07T02:43:45.082Z,0.33
2022-12-07T02:46:21.074Z,0.33
2022-12-07T02:48:48.961Z,0.31
2022-12-07T02:51:15.586Z,0.30
2022-12-07T02:53:44.123Z,0.29
2022-12-07T02:56:16.620Z,0.27
2022-12-07T02:58:56.054Z,0.27
2022-12-07T03:01:55.214Z,0.27
2022-12-07T03:04:51.919Z,0.25
2022-12-07T03:07:55.853Z,0.28
2022-12-07T03:10:47.133Z,0.28
2022-12-07T03:13:34.661Z,0.27
2022-12-07T03:16:16.517Z,0.28
2022-12-07T03:19:06.965Z,0.28
2022-12-07T03:21:38.419Z,0.28
2022-12-07T03:24:29.500Z,0.27
2022-12-07T03:27:15.222Z,0.25
2022-12-07T03:29:49.397Z,0.27
2022-12-07T03:32:37.438Z,0.28
2022-12-07T03:35:17.075Z,0.25
2022-12-07T03:37:57.659Z,0.25
2022-12-07T03:40:34.965Z,0.25
2022-12-07T03:43:02.923Z,0.23
2022-12-07T03:45:39.136Z,0.24
2022-12-07T03:48:05.564Z,0.22
2022-12-07T03:50:46.123Z,0.23
2022-12-07T03:53:19.723Z,0.24
2022-12-07T03:55:48.671Z,0.23
2022-12-07T03:58:23.196Z,0.22
2022-12-07T04:00:51.867Z,0.23
2022-12-07T04:03:18.631Z,0.21
2022-12-07T04:05:46.339Z,0.19
2022-12-07T04:08:13.108Z,0.22
2022-12-07T04:10:39.941Z,0.23
2022-12-07T04:13:06.685Z,0.22
2022-12-07T04:15:33.284Z,0.21
2022-12-07T04:17:59.894Z,0.20
2022-12-07T04:20:27.029Z,0.21
2022-12-07T04:22:53.732Z,0.23
2022-12-07T04:25:20.331Z,0.22
2022-12-07T04:27:46.921Z,0.23
2022-12-07T04:30:13.646Z,0.23
2022-12-07T04:32:40.339Z,0.24
2022-12-07T04:35:07.781Z,0.25
2022-12-07T04:37:34.451Z,0.24
2022-12-07T04:40:01.462Z,0.25
2022-12-07T04:42:28.983Z,0.22
2022-12-07T04:44:55.592Z,0.23
2022-12-07T04:47:22.157Z,0.22
2022-12-07T04:49:48.757Z,0.21
2022-12-07T04:52:15.316Z,0.18
2022-12-07T04:54:42.006Z,0.18
2022-12-07T04:57:08.984Z,0.16
2022-12-07T04:59:35.563Z,0.15
2022-12-07T05:02:02.182Z,0.18
2022-12-07T05:04:28.861Z,0.17
2022-12-07T05:06:55.426Z,0.20
2022-12-07T05:09:21.993Z,0.20
2022-12-07T05:11:48.569Z,0.22
2022-12-07T05:14:21.715Z,0.24
2022-12-07T05:16:50.867Z,0.25
2022-12-07T05:19:18.877Z,0.24
2022-12-07T05:21:45.589Z,0.27
2022-12-07T05:24:14.074Z,0.29
2022-12-07T05:26:41.117Z,0.29
2022-12-07T05:29:07.778Z,0.29
2022-12-07T05:31:35.385Z,0.32
2022-12-07T05:34:02.453Z,0.33
2022-12-07T05:36:29.870Z,0.34
2022-12-07T05:38:56.529Z,0.36
2022-12-07T05:41:41.766Z,0.37
2022-12-07T05:44:08.413Z,0.38
2022-12-07T05:46:35.497Z,0.40
2022-12-07T05:49:02.983Z,0.43
2022-12-07T05:51:29.600Z,0.43
2022-12-07T05:53:56.228Z,0.44
2022-12-07T05:56:22.956Z,0.44
2022-12-07T05:59:08.539Z,0.44
2022-12-07T06:01:35.127Z,0.44
2022-12-07T06:04:01.810Z,0.44
2022-12-07T06:06:28.431Z,0.46
2022-12-07T06:08:55.416Z,0.46
2022-12-07T06:11:40.252Z,0.44
2022-12-07T06:14:06.818Z,0.47
2022-12-07T06:16:33.530Z,0.46
2022-12-07T06:19:00.237Z,0.47
2022-12-07T06:21:29.704Z,0.46
2022-12-07T06:23:56.749Z,0.48
2022-12-07T06:26:23.362Z,0.47
2022-12-07T06:28:49.964Z,0.46
2022-12-07T06:31:16.757Z,0.48
2022-12-07T06:33:49.006Z,0.46
2022-12-07T06:36:15.674Z,0.43
2022-12-07T06:38:42.314Z,0.43
2022-12-07T06:41:08.935Z,0.43
2022-12-07T06:43:35.560Z,0.42
2022-12-07T06:46:02.356Z,0.40
2022-12-07T06:48:28.980Z,0.43
2022-12-07T06:50:55.667Z,0.42
2022-12-07T06:53:23.197Z,0.46
2022-12-07T06:55:49.847Z,0.44
2022-12-07T06:58:16.491Z,0.44
2022-12-07T07:00:43.223Z,0.43
2022-12-07T07:03:09.929Z,0.42
2022-12-07T07:05:36.804Z,0.42
2022-12-07T07:10:50.883Z,0.42
2022-12-07T07:13:17.716Z,0.41
2022-12-07T07:15:44.377Z,0.40
2022-12-07T07:18:11.584Z,0.44
2022-12-07T07:20:38.918Z,0.42
2022-12-07T07:23:05.968Z,0.43
2022-12-07T07:25:32.848Z,0.45
2022-12-07T07:27:59.585Z,0.46
2022-12-07T07:30:27.004Z,0.45
2022-12-07T07:32:59.113Z,0.48
2022-12-07T07:35:26.843Z,0.53
2022-12-07T07:37:53.464Z,0.62
2022-12-07T07:40:20.071Z,0.76
2022-12-07T07:42:50.846Z,0.85
2022-12-07T07:45:18.026Z,0.97
2022-12-07T07:47:44.738Z,1.01
2022-12-07T07:50:11.507Z,0.99
2022-12-07T07:52:38.148Z,0.97
2022-12-07T07:55:05.318Z,1.12
2022-12-07T07:57:31.961Z,1.59
2022-12-07T07:59:58.593Z,2.11
2022-12-07T08:02:25.568Z,2.55
2022-12-07T08:04:52.233Z,2.38
2022-12-07T08:07:18.864Z,2.09
2022-12-07T08:09:45.425Z,1.87
2022-12-07T08:12:11.992Z,1.57
2022-12-07T08:14:39.490Z,1.47
2022-12-07T08:17:06.060Z,1.37
2022-12-07T08:19:32.714Z,1.26
2022-12-07T08:21:59.263Z,1.17
2022-12-07T08:24:26.304Z,1.19
2022-12-07T08:26:53.093Z,1.12
2022-12-07T08:29:19.757Z,1.11
2022-12-07T08:31:46.733Z,1.11
2022-12-07T08:34:14.566Z,1.17
2022-12-07T08:36:41.159Z,1.52
2022-12-07T08:39:31.255Z,2.14
2022-12-07T08:41:54.960Z,2.64
2022-12-07T08:44:21.538Z,2.58
2022-12-07T08:46:54.237Z,2.39
2022-12-07T08:49:30.134Z,2.16
2022-12-07T08:51:56.872Z,2.11
2022-12-07T08:54:23.641Z,2.41
2022-12-07T08:56:58.542Z,2.68
2022-12-07T08:59:26.420Z,3.36
2022-12-07T09:01:54.058Z,3.79
2022-12-07T09:04:21.774Z,3.80
2022-12-07T09:06:48.950Z,4.15
2022-12-07T09:09:16.005Z,4.08
2022-12-07T09:11:42.690Z,4.28
2022-12-07T09:14:09.344Z,4.25
2022-12-07T09:16:36.026Z,3.88
2022-12-07T09:19:02.909Z,3.79
2022-12-07T09:21:29.499Z,3.88
2022-12-07T09:23:56.106Z,3.74
2022-12-07T09:26:22.718Z,3.63
2022-12-07T09:28:49.311Z,3.63
2022-12-07T09:31:24.771Z,3.93
2022-12-07T09:34:00.038Z,3.98
2022-12-07T09:36:27.625Z,3.75
2022-12-07T09:38:54.300Z,3.51
2022-12-07T09:41:22.076Z,3.42
2022-12-07T09:43:48.688Z,3.38
2022-12-07T09:46:18.618Z,3.27
2022-12-07T09:48:45.960Z,3.15
2022-12-07T09:51:33.155Z,2.92
2022-12-07T09:54:01.366Z,2.87
2022-12-07T09:56:31.823Z,2.74
2022-12-07T09:59:03.731Z,2.74
2022-12-07T10:01:33.177Z,2.89
2022-12-07T10:04:22.455Z,2.93
2022-12-07T10:06:52.118Z,2.98
2022-12-07T10:09:22.312Z,2.95
2022-12-07T10:12:07.584Z,2.97
2022-12-07T10:15:06.311Z,2.92
2022-12-07T10:17:49.837Z,2.91
2022-12-07T10:20:18.548Z,2.84
2022-12-07T10:23:05.938Z,2.72
2022-12-07T10:25:37.511Z,2.71
2022-12-07T10:28:09.899Z,2.62
2022-12-07T10:30:50.129Z,2.59
2022-12-07T10:33:49.493Z,2.56
2022-12-07T10:36:25.262Z,2.52
2022-12-07T10:39:15.176Z,2.44
2022-12-07T10:42:02.464Z,2.18
2022-12-07T10:44:31.598Z,2.09
2022-12-07T10:47:07.058Z,2.00
2022-12-07T10:49:36.710Z,2.01
2022-12-07T10:52:21.547Z,1.97
2022-12-07T10:55:45.029Z,2.01
2022-12-07T10:58:26.428Z,2.01
2022-12-07T11:01:24.558Z,1.99
2022-12-07T11:04:36.163Z,1.97
2022-12-07T11:07:14.376Z,1.94
2022-12-07T11:10:08.542Z,1.89
2022-12-07T11:13:25.122Z,1.83
2022-12-07T11:16:00.935Z,1.79
2022-12-07T11:18:44.889Z,1.82
2022-12-07T11:21:17.242Z,1.82
2022-12-07T11:23:53.721Z,1.79
2022-12-07T11:26:26.156Z,1.85
2022-12-07T11:29:04.746Z,1.87
2022-12-07T11:31:57.485Z,1.98
2022-12-07T11:34:38.761Z,1.95
2022-12-07T11:37:13.798Z,1.92
2022-12-07T11:39:55.280Z,1.97
2022-12-07T11:42:28.661Z,1.99
2022-12-07T11:45:02.008Z,1.96
2022-12-07T11:47:49.370Z,2.01
2022-12-07T11:50:34.052Z,2.02
2022-12-07T11:53:09.360Z,2.05
2022-12-07T11:55:48.571Z,2.07
2022-12-07T11:58:45.754Z,2.08
2022-12-07T12:01:16.255Z,2.08
2022-12-07T12:03:52.676Z,2.02
2022-12-07T12:06:20.803Z,1.98
2022-12-07T12:09:46.691Z,1.94
2022-12-07T12:16:08.005Z,1.94
2022-12-07T12:18:54.421Z,1.99
2022-12-07T12:21:31.786Z,2.06
2022-12-07T12:24:04.330Z,2.05
2022-12-07T12:26:34.393Z,2.07
2022-12-07T12:29:04.912Z,2.13
2022-12-07T12:31:37.518Z,2.22
2022-12-07T12:34:24.313Z,2.25
2022-12-07T12:36:50.861Z,2.27
2022-12-07T12:39:20.181Z,2.30
2022-12-07T12:41:49.777Z,2.28
2022-12-07T12:44:16.289Z,2.44
2022-12-07T12:47:05.799Z,2.59
2022-12-07T12:49:41.448Z,2.65
2022-12-07T12:52:47.223Z,2.67
2022-12-07T12:55:21.993Z,2.54
2022-12-07T12:58:20.758Z,2.52
2022-12-07T13:00:50.110Z,2.50
2022-12-07T13:03:31.050Z,2.46
2022-12-07T13:06:19.590Z,2.40
2022-12-07T13:08:47.177Z,2.35
2022-12-07T13:11:34.637Z,2.16
2022-12-07T13:14:41.375Z,2.24
2022-12-07T13:17:33.695Z,2.36
2022-12-07T13:20:05.138Z,2.41
2022-12-07T13:22:31.661Z,2.39
2022-12-07T13:25:03.742Z,2.37
2022-12-07T13:27:31.541Z,2.34
2022-12-07T13:29:59.290Z,2.33
2022-12-07T13:32:28.939Z,2.21
2022-12-07T13:34:55.536Z,2.15
2022-12-07T13:37:25.647Z,2.12
2022-12-07T13:39:57.849Z,2.12
2022-12-07T13:42:32.226Z,2.12
2022-12-07T13:45:01.971Z,2.11
2022-12-07T13:47:43.024Z,2.12
2022-12-07T13:50:25.862Z,2.04
2022-12-07T13:52:57.072Z,2.09
2022-12-07T13:55:24.114Z,2.07
2022-12-07T13:57:53.581Z,2.03
2022-12-07T14:00:23.522Z,2.06
2022-12-07T14:03:02.475Z,2.36
2022-12-07T14:05:31.734Z,2.23
2022-12-07T14:07:58.637Z,2.17
2022-12-07T14:10:37.379Z,2.17
2022-12-07T14:13:23.237Z,2.17
2022-12-07T14:15:53.260Z,2.21
2022-12-07T14:18:31.449Z,2.18
2022-12-07T14:21:10.615Z,2.15
2022-12-07T14:23:39.621Z,2.21
2022-12-07T14:26:16.726Z,2.18
2022-12-07T14:28:44.647Z,2.15
2022-12-07T14:31:25.185Z,2.15
2022-12-07T14:34:00.745Z,2.13
2022-12-07T14:36:27.349Z,2.13
2022-12-07T14:38:57.269Z,2.05
2022-12-07T14:41:43.539Z,2.02
2022-12-07T14:44:34.103Z,1.98
2022-12-07T14:49:47.273Z,1.94
2022-12-07T14:55:24.446Z,1.93
2022-12-07T14:57:51.644Z,1.90
2022-12-07T15:00:19.895Z,1.89
2022-12-07T15:02:47.653Z,1.86
2022-12-07T15:05:16.595Z,1.81
2022-12-07T15:07:44.428Z,1.78
2022-12-07T15:10:30.442Z,1.77
2022-12-07T15:13:20.838Z,1.72
2022-12-07T15:15:53.596Z,1.70
2022-12-07T15:18:21.265Z,1.66
2022-12-07T15:20:47.935Z,1.63
2022-12-07T15:23:15.319Z,1.59
2022-12-07T15:25:46.565Z,1.59
2022-12-07T15:28:13.791Z,1.58
2022-12-07T15:30:42.157Z,1.55
2022-12-07T15:33:08.808Z,1.55
2022-12-07T15:35:42.549Z,1.52
2022-12-07T15:38:09.482Z,1.44
2022-12-07T15:40:36.236Z,1.50
2022-12-07T15:43:03.925Z,1.47
2022-12-07T15:45:30.553Z,1.48
2022-12-07T15:50:43.629Z,1.43
2022-12-07T15:53:10.716Z,1.40
2022-12-07T15:55:40.154Z,1.35
2022-12-07T15:58:06.942Z,1.33
2022-12-07T16:00:33.882Z,1.29
2022-12-07T16:03:00.533Z,1.19
2022-12-07T16:05:28.467Z,1.14
2022-12-07T16:07:55.201Z,1.11
2022-12-07T16:10:21.820Z,1.08
2022-12-07T16:12:48.357Z,1.05
2022-12-07T16:15:17.081Z,1.04
2022-12-07T16:17:45.715Z,1.02
2022-12-07T16:20:12.347Z,1.01
2022-12-07T16:22:38.920Z,1.00
2022-12-07T16:25:07.575Z,1.00
2022-12-07T16:27:34.156Z,0.98
2022-12-07T16:30:00.721Z,0.94
2022-12-07T16:32:27.362Z,0.93
2022-12-07T16:34:54.004Z,0.91
2022-12-07T16:37:22.410Z,0.92
2022-12-07T16:39:49.156Z,0.97
2022-12-07T16:42:15.808Z,0.94
2022-12-07T16:44:43.573Z,0.95
2022-12-07T16:47:11.860Z,0.95
2022-12-07T16:49:38.821Z,0.89
2022-12-07T16:52:21.510Z,0.92
2022-12-07T16:54:49.775Z,0.94
2022-12-07T16:57:22.509Z,0.96
2022-12-07T16:59:50.796Z,0.92
2022-12-07T17:02:17.462Z,0.90
2022-12-07T17:04:44.064Z,0.90
2022-12-07T17:07:11.161Z,0.88
2022-12-07T17:09:38.206Z,0.88
2022-12-07T17:12:06.306Z,0.87
2022-12-07T17:14:51.750Z,0.95
2022-12-07T17:17:18.313Z,0.88
2022-12-07T17:19:45.117Z,0.92
2022-12-07T17:22:13.813Z,0.82
2022-12-07T17:24:40.505Z,0.78
2022-12-07T17:27:07.339Z,0.72
2022-12-07T17:29:34.091Z,0.72
2022-12-07T17:32:00.851Z,0.64
2022-12-07T17:34:27.523Z,0.58
2022-12-07T17:36:55.889Z,0.51
2022-12-07T17:39:23.219Z,0.52
2022-12-07T17:42:09.183Z,0.48
2022-12-07T17:44:35.790Z,0.38
2022-12-07T17:47:06.694Z,0.40
2022-12-07T17:49:33.416Z,0.38
2022-12-07T17:52:18.728Z,0.32
2022-12-07T17:54:45.357Z,0.29
2022-12-07T17:57:11.974Z,0.22
2022-12-07T17:59:38.595Z,0.14
2022-12-07T18:02:05.554Z,0.16
2022-12-07T18:04:32.743Z,0.21
2022-12-07T18:06:59.320Z,0.15
2022-12-07T18:09:26.001Z,0.08
2022-12-07T18:11:52.650Z,0.08
2022-12-07T18:14:19.283Z,0.02
2022-12-07T18:16:46.052Z,0.02
2022-12-07T18:19:14.827Z,-0.02
2022-12-07T18:21:42.401Z,-0.07
2022-12-07T18:24:11.895Z,-0.06
2022-12-07T18:26:39.365Z,-0.03
2022-12-07T18:29:07.677Z,-0.17
2022-12-07T18:31:36.002Z,-0.18
2022-12-07T18:34:09.660Z,-0.22
2022-12-07T18:36:36.234Z,-0.25
2022-12-07T18:39:06.449Z,-0.30
2022-12-07T18:41:33.088Z,-0.23
2022-12-07T18:44:00.095Z,-0.26
2022-12-07T18:46:26.937Z,-0.30
2022-12-07T18:48:53.602Z,-0.32
2022-12-07T18:51:20.702Z,-0.30
2022-12-07T18:53:47.432Z,-0.32
2022-12-07T18:56:16.011Z,-0.36
2022-12-07T18:59:03.184Z,-0.35
2022-12-07T19:01:31.345Z,-0.40
2022-12-07T19:03:59.089Z,-0.41
2022-12-07T19:06:26.323Z,-0.35
2022-12-07T19:08:54.207Z,-0.37
2022-12-07T19:11:42.846Z,-0.38
2022-12-07T19:14:10.061Z,-0.37
2022-12-07T19:16:37.047Z,-0.41
2022-12-07T19:19:05.301Z,-0.45
2022-12-07T19:21:32.268Z,-0.36
2022-12-07T19:23:59.016Z,-0.35
2022-12-07T19:26:25.720Z,-0.33
2022-12-07T19:28:52.286Z,-0.33
2022-12-07T19:31:18.982Z,-0.34
2022-12-07T19:33:45.777Z,-0.31
2022-12-07T19:36:12.363Z,-0.31
2022-12-07T19:38:39.035Z,-0.30
2022-12-07T19:41:06.702Z,-0.28
2022-12-07T19:43:34.778Z,-0.30
2022-12-07T19:46:06.377Z,-0.30
2022-12-07T19:48:33.188Z,-0.27
2022-12-07T19:51:06.018Z,-0.20
2022-12-07T19:53:33.330Z,-0.17
2022-12-07T19:56:00.430Z,-0.11
2022-12-07T19:58:27.171Z,-0.08
2022-12-07T20:00:53.855Z,-0.08
2022-12-07T20:03:20.659Z,0.03
2022-12-07T20:05:47.745Z,0.06
2022-12-07T20:08:14.518Z,0.11
2022-12-07T20:10:42.436Z,0.11
2022-12-07T20:13:28.297Z,0.22
2022-12-07T20:16:18.899Z,0.25
2022-12-07T20:18:46.361Z,0.28
2022-12-07T20:21:13.073Z,0.28
2022-12-07T20:23:40.064Z,0.28
2022-12-07T20:26:09.956Z,0.30
2022-12-07T20:28:37.226Z,0.33
2022-12-07T20:31:04.170Z,0.22
2022-12-07T20:33:31.843Z,0.18
2022-12-07T20:36:03.470Z,0.15
2022-12-07T20:38:32.404Z,0.18
2022-12-07T20:41:04.725Z,0.30
2022-12-07T20:43:31.782Z,0.33
2022-12-07T20:45:58.625Z,0.37
2022-12-07T20:48:25.993Z,0.44
2022-12-07T20:50:52.703Z,0.53
2022-12-07T20:53:19.337Z,0.65
2022-12-07T20:55:45.912Z,0.71
2022-12-07T20:58:12.511Z,0.74
2022-12-07T21:00:39.158Z,0.79
2022-12-07T21:03:05.872Z,0.89
2022-12-07T21:05:35.396Z,0.87
2022-12-07T21:08:02.640Z,0.87
2022-12-07T21:10:29.478Z,0.87
2022-12-07T21:12:56.239Z,0.88
2022-12-07T21:15:23.191Z,0.84
2022-12-07T21:17:49.999Z,0.88
2022-12-07T21:20:16.785Z,0.88
2022-12-07T21:22:43.408Z,0.89
2022-12-07T21:25:10.238Z,0.91
2022-12-07T21:27:36.840Z,0.90
2022-12-07T21:30:04.096Z,0.89
2022-12-07T21:32:30.677Z,0.89
2022-12-07T21:34:57.291Z,0.88
2022-12-07T21:37:23.965Z,0.90
2022-12-07T21:39:50.610Z,0.95
2022-12-07T21:42:17.176Z,0.94
2022-12-07T21:44:43.858Z,0.94
2022-12-07T21:47:10.499Z,0.88
2022-12-07T21:49:37.214Z,0.84
2022-12-07T21:52:05.177Z,0.85
2022-12-07T21:54:32.590Z,0.79
2022-12-07T21:56:59.274Z,0.75
2022-12-07T21:59:25.860Z,0.72
2022-12-07T22:01:53.111Z,0.64
2022-12-07T22:04:22.311Z,0.64
2022-12-07T22:06:49.627Z,0.61
2022-12-07T22:09:18.833Z,0.53
2022-12-07T22:11:46.724Z,0.48
2022-12-07T22:14:31.793Z,0.45
2022-12-07T22:16:58.763Z,0.39
2022-12-07T22:19:26.688Z,0.36
2022-12-07T22:21:53.357Z,0.35
2022-12-07T22:24:20.139Z,0.32
2022-12-07T22:26:46.949Z,0.29
2022-12-07T22:29:13.506Z,0.28
2022-12-07T22:31:41.299Z,0.28
2022-12-07T22:34:14.819Z,0.29
2022-12-07T22:36:41.383Z,0.24
2022-12-07T22:39:09.449Z,0.23
2022-12-07T22:41:36.305Z,0.24
2022-12-07T22:44:06.958Z,0.24
2022-12-07T22:46:34.197Z,0.21
2022-12-07T22:49:01.208Z,0.19
2022-12-07T22:51:28.954Z,0.16
2022-12-07T22:53:57.110Z,0.12
2022-12-07T22:56:23.757Z,0.10
2022-12-07T22:58:50.376Z,0.10
2022-12-07T23:01:18.996Z,0.07
2022-12-07T23:03:46.286Z,0.05
2022-12-07T23:06:16.523Z,0.03
2022-12-07T23:08:43.323Z,0.03
2022-12-07T23:11:38.230Z,0.03
2022-12-07T23:14:10.061Z,0.02
2022-12-07T23:16:37.186Z,0.03
2022-12-07T23:19:04.364Z,0.03
2022-12-07T23:21:31.401Z,0.02
2022-12-07T23:23:58.427Z,0.02
2022-12-07T23:26:25.064Z,0.03
2022-12-07T23:28:51.959Z,0.04
2022-12-07T23:31:20.377Z,0.08
2022-12-07T23:33:47.119Z,0.09
2022-12-07T23:36:17.135Z,0.11
2022-12-07T23:38:45.250Z,0.17
2022-12-07T23:41:14.605Z,0.21
2022-12-07T23:43:42.246Z,0.28
2022-12-07T23:46:17.648Z,0.32
2022-12-07T23:48:45.265Z,0.44
2022-12-07T23:51:12.581Z,0.44
2022-12-07T23:53:42.459Z,0.49
2022-12-07T23:56:13.493Z,0.52
2022-12-07T23:58:40.201Z,0.55
